createdAt,value
2023-04-07T00:00:16.191Z,99004.91
2023-04-07T00:03:07.490Z,99002.96
2023-04-07T00:05:36.130Z,99003.05
2023-04-07T00:08:04.584Z,98996.71
2023-04-07T00:10:32.885Z,99004.46
2023-04-07T00:13:01.495Z,99003.02
2023-04-07T00:15:30.236Z,99004.09
2023-04-07T00:17:58.493Z,99002.33
2023-04-07T00:20:26.720Z,98998.20
2023-04-07T00:22:54.937Z,99003.55
2023-04-07T00:25:23.198Z,99003.58
2023-04-07T00:27:51.405Z,99004.70
2023-04-07T00:30:19.820Z,99002.10
2023-04-07T00:32:48.188Z,98993.60
2023-04-07T00:35:16.607Z,98988.46
2023-04-07T00:37:44.968Z,98981.19
2023-04-07T00:40:13.243Z,98980.52
2023-04-07T00:42:42.430Z,98980.50
2023-04-07T00:45:11.751Z,98982.35
2023-04-07T00:47:40.763Z,98984.63
2023-04-07T00:50:09.387Z,98988.65
2023-04-07T00:52:37.805Z,98985.60
2023-04-07T00:55:06.528Z,98980.90
2023-04-07T00:57:34.801Z,98969.52
2023-04-07T01:00:06.846Z,98968.77
2023-04-07T01:02:57.047Z,98975.77
2023-04-07T01:05:51.914Z,98976.75
2023-04-07T01:08:22.320Z,98974.95
2023-04-07T01:10:56.999Z,98976.25
2023-04-07T01:13:49.659Z,98976.50
2023-04-07T01:16:37.236Z,98980.17
2023-04-07T01:19:36.462Z,98972.40
2023-04-07T01:22:30.587Z,98973.28
2023-04-07T01:25:15.814Z,98975.50
2023-04-07T01:27:53.099Z,98969.50
2023-04-07T01:30:24.567Z,98968.52
2023-04-07T01:32:54.652Z,98962.48
2023-04-07T01:35:24.444Z,98958.18
2023-04-07T01:37:53.438Z,98954.17
2023-04-07T01:40:22.394Z,98944.92
2023-04-07T01:42:52.582Z,98941.42
2023-04-07T01:45:21.833Z,98940.02
2023-04-07T01:47:53.170Z,98943.23
2023-04-07T01:50:22.858Z,98940.70
2023-04-07T01:52:52.924Z,98939.63
2023-04-07T01:55:22.575Z,98937.47
2023-04-07T01:58:05.983Z,98939.50
2023-04-07T02:00:34.500Z,98938.10
2023-04-07T02:03:27.688Z,98941.20
2023-04-07T02:06:02.929Z,98945.58
2023-04-07T02:08:33.735Z,98943.27
2023-04-07T02:11:04.099Z,98942.15
2023-04-07T02:13:37.612Z,98942.30
2023-04-07T02:16:07.591Z,98940.29
2023-04-07T02:18:38.005Z,98936.64
2023-04-07T02:21:09.030Z,98934.30
2023-04-07T02:23:38.033Z,98932.11
2023-04-07T02:26:07.774Z,98933.44
2023-04-07T02:28:36.203Z,98938.80
2023-04-07T02:31:04.571Z,98940.97
2023-04-07T02:33:33.960Z,98946.20
2023-04-07T02:36:02.197Z,98949.34
2023-04-07T02:38:32.281Z,98949.52
2023-04-07T02:41:00.542Z,98947.53
2023-04-07T02:43:31.847Z,98937.19
2023-04-07T02:46:00.174Z,98923.73
2023-04-07T02:48:28.514Z,98920.15
2023-04-07T02:50:57.013Z,98928.73
2023-04-07T02:53:25.352Z,98941.58
2023-04-07T02:55:53.692Z,98945.88
2023-04-07T02:58:22.228Z,98941.53
2023-04-07T03:00:50.938Z,98942.84
2023-04-07T03:03:23.281Z,98939.65
2023-04-07T03:06:12.126Z,98937.38
2023-04-07T03:08:48.446Z,98942.05
2023-04-07T03:11:16.683Z,98941.02
2023-04-07T03:13:44.977Z,98942.95
2023-04-07T03:16:14.173Z,98947.65
2023-04-07T03:18:53.437Z,98938.80
2023-04-07T03:21:22.387Z,98939.98
2023-04-07T03:23:51.235Z,98934.40
2023-04-07T03:26:20.035Z,98927.58
2023-04-07T03:28:48.414Z,98920.23
2023-04-07T03:31:17.112Z,98917.02
2023-04-07T03:33:46.206Z,98914.84
2023-04-07T03:36:14.652Z,98918.77
2023-04-07T03:38:43.235Z,98919.00
2023-04-07T03:41:11.577Z,98911.44
2023-04-07T03:43:40.075Z,98914.57
2023-04-07T03:46:08.413Z,98926.38
2023-04-07T03:48:36.859Z,98942.40
2023-04-07T03:51:08.468Z,98945.06
2023-04-07T03:53:36.678Z,98949.70
2023-04-07T03:56:29.051Z,98948.24
2023-04-07T03:58:59.234Z,98947.88
2023-04-07T04:01:31.922Z,98951.59
2023-04-07T04:04:05.916Z,98952.48
2023-04-07T04:06:34.709Z,98953.23
2023-04-07T04:09:10.095Z,98954.38
2023-04-07T04:11:41.684Z,98951.63
2023-04-07T04:14:10.022Z,98943.23
2023-04-07T04:16:38.855Z,98942.66
2023-04-07T04:19:12.695Z,98957.50
2023-04-07T04:21:41.130Z,98967.52
2023-04-07T04:24:09.430Z,98968.33
2023-04-07T04:26:38.944Z,98973.44
2023-04-07T04:29:11.758Z,98975.34
2023-04-07T04:31:40.767Z,98974.15
2023-04-07T04:34:10.455Z,98960.67
2023-04-07T04:36:41.790Z,98952.52
2023-04-07T04:39:10.198Z,98951.71
2023-04-07T04:41:39.968Z,98949.44
2023-04-07T04:44:08.858Z,98947.38
2023-04-07T04:46:39.278Z,98952.59
2023-04-07T04:49:08.142Z,98949.66
2023-04-07T04:51:37.841Z,98948.11
2023-04-07T04:54:13.126Z,98950.63
2023-04-07T04:56:42.990Z,98953.00
2023-04-07T04:59:32.262Z,98951.89
2023-04-07T05:02:03.855Z,98949.80
2023-04-07T05:04:33.439Z,98948.66
2023-04-07T05:07:09.244Z,98945.92
2023-04-07T05:09:37.527Z,98947.56
2023-04-07T05:12:06.203Z,98945.92
2023-04-07T05:14:38.613Z,98944.01
2023-04-07T05:17:08.386Z,98941.55
2023-04-07T05:19:36.830Z,98940.52
2023-04-07T05:22:12.187Z,98941.03
2023-04-07T05:24:50.435Z,98938.68
2023-04-07T05:27:19.579Z,98940.60
2023-04-07T05:29:50.696Z,98944.33
2023-04-07T05:32:28.704Z,98951.94
2023-04-07T05:34:57.851Z,98946.25
2023-04-07T05:37:29.259Z,98950.30
2023-04-07T05:39:58.445Z,98950.62
2023-04-07T05:42:26.893Z,98947.38
2023-04-07T05:44:56.435Z,98944.23
2023-04-07T05:47:25.518Z,98944.75
2023-04-07T05:49:54.277Z,98943.73
2023-04-07T05:52:23.164Z,98943.60
2023-04-07T05:54:57.056Z,98943.84
2023-04-07T05:57:28.562Z,98945.04
2023-04-07T05:59:58.170Z,98943.75
2023-04-07T06:02:26.678Z,98946.77
2023-04-07T06:04:55.572Z,98951.38
2023-04-07T06:07:24.289Z,98954.22
2023-04-07T06:09:52.655Z,98954.77
2023-04-07T06:12:21.183Z,98952.52
2023-04-07T06:14:55.674Z,98946.71
2023-04-07T06:17:24.100Z,98941.36
2023-04-07T06:19:52.523Z,98945.08
2023-04-07T06:22:20.795Z,98943.74
2023-04-07T06:24:49.195Z,98946.17
2023-04-07T06:27:18.572Z,98944.95
2023-04-07T06:29:49.064Z,98941.55
2023-04-07T06:32:17.475Z,98938.79
2023-04-07T06:34:46.200Z,98940.68
2023-04-07T06:37:17.172Z,98943.37
2023-04-07T06:39:45.620Z,98941.84
2023-04-07T06:42:13.865Z,98941.65
2023-04-07T06:44:50.315Z,98938.57
2023-04-07T06:47:18.685Z,98938.10
2023-04-07T06:49:46.928Z,98937.56
2023-04-07T06:52:15.677Z,98939.70
2023-04-07T06:54:44.426Z,98941.62
2023-04-07T06:57:12.856Z,98938.87
2023-04-07T06:59:41.381Z,98932.40
2023-04-07T07:02:09.842Z,98938.60
2023-04-07T07:04:39.084Z,98943.07
2023-04-07T07:07:07.561Z,98941.80
2023-04-07T07:09:35.726Z,98946.27
2023-04-07T07:12:04.463Z,98945.95
2023-04-07T07:14:33.024Z,98946.64
2023-04-07T07:17:01.365Z,98953.46
2023-04-07T07:19:29.635Z,98961.16
2023-04-07T07:21:57.930Z,98963.83
2023-04-07T07:24:26.193Z,98964.71
2023-04-07T07:26:54.528Z,98968.40
2023-04-07T07:29:23.059Z,98975.72
2023-04-07T07:31:51.712Z,98983.05
2023-04-07T07:34:20.148Z,98986.10
2023-04-07T07:36:48.462Z,98983.41
2023-04-07T07:39:16.679Z,98980.45
2023-04-07T07:41:45.534Z,98979.63
2023-04-07T07:44:13.910Z,98972.73
2023-04-07T07:46:42.190Z,98968.52
2023-04-07T07:49:10.549Z,98969.75
2023-04-07T07:51:38.919Z,98970.54
2023-04-07T07:54:07.272Z,98970.98
2023-04-07T07:56:35.928Z,98965.98
2023-04-07T07:59:08.634Z,98966.01
2023-04-07T08:01:36.867Z,98968.48
2023-04-07T08:04:05.829Z,98973.35
2023-04-07T08:06:34.110Z,98976.31
2023-04-07T08:09:02.704Z,98976.23
2023-04-07T08:11:31.106Z,98982.45
2023-04-07T08:13:59.370Z,98983.63
2023-04-07T08:16:27.835Z,98981.47
2023-04-07T08:18:59.213Z,98985.31
2023-04-07T08:21:28.620Z,98980.02
2023-04-07T08:23:57.840Z,98976.48
2023-04-07T08:26:26.253Z,98974.60
2023-04-07T08:28:58.749Z,98971.02
2023-04-07T08:31:27.717Z,98972.33
2023-04-07T08:33:58.386Z,98969.60
2023-04-07T08:36:28.319Z,98965.90
2023-04-07T08:38:58.806Z,98965.79
2023-04-07T08:41:44.407Z,98963.83
2023-04-07T08:44:18.890Z,98956.81
2023-04-07T08:46:50.564Z,98953.77
2023-04-07T08:49:21.463Z,98955.44
2023-04-07T08:51:51.913Z,98954.14
2023-04-07T08:54:22.731Z,98954.01
2023-04-07T08:56:51.998Z,98955.89
2023-04-07T08:59:26.995Z,98951.89
2023-04-07T09:01:56.870Z,98951.01
2023-04-07T09:04:27.791Z,98947.05
2023-04-07T09:06:57.361Z,98948.06
2023-04-07T09:09:26.220Z,98947.20
2023-04-07T09:11:54.736Z,98944.59
2023-04-07T09:14:25.140Z,98943.61
2023-04-07T09:16:55.206Z,98944.55
2023-04-07T09:19:27.581Z,98946.59
2023-04-07T09:21:56.418Z,98951.25
2023-04-07T09:24:31.755Z,98952.11
2023-04-07T09:27:17.979Z,98956.52
2023-04-07T09:29:48.105Z,98957.59
2023-04-07T09:32:41.737Z,98956.84
2023-04-07T09:35:10.645Z,98958.77
2023-04-07T09:37:39.330Z,98963.25
2023-04-07T09:40:08.807Z,98967.16
2023-04-07T09:42:46.614Z,98965.16
2023-04-07T09:45:33.973Z,98965.21
2023-04-07T09:48:19.287Z,98964.46
2023-04-07T09:50:52.260Z,98965.79
2023-04-07T09:53:20.523Z,98970.19
2023-04-07T09:55:50.454Z,98971.38
2023-04-07T09:58:19.653Z,98967.91
2023-04-07T10:00:48.162Z,98972.48
2023-04-07T10:03:17.113Z,98971.12
2023-04-07T10:05:46.964Z,98965.30
2023-04-07T10:08:15.837Z,98959.83
2023-04-07T10:10:44.608Z,98955.78
2023-04-07T10:13:13.284Z,98950.23
2023-04-07T10:15:41.851Z,98939.44
2023-04-07T10:18:11.096Z,98938.44
2023-04-07T10:20:42.307Z,98943.96
2023-04-07T10:23:24.460Z,98947.55
2023-04-07T10:25:56.826Z,98944.92
2023-04-07T10:28:28.296Z,98946.19
2023-04-07T10:30:58.248Z,98950.56
2023-04-07T10:33:53.488Z,98952.84
2023-04-07T10:36:22.230Z,98955.39
2023-04-07T10:39:23.775Z,98962.02
2023-04-07T10:41:52.461Z,98969.98
2023-04-07T10:44:39.169Z,98969.11
2023-04-07T10:47:08.056Z,98966.16
2023-04-07T10:49:36.729Z,98962.55
2023-04-07T10:52:15.028Z,98963.58
2023-04-07T10:54:43.491Z,98964.89
2023-04-07T10:57:14.612Z,98964.79
2023-04-07T11:00:12.014Z,98972.84
2023-04-07T11:02:41.617Z,98982.45
2023-04-07T11:05:21.895Z,98986.19
2023-04-07T11:07:54.255Z,98987.83
2023-04-07T11:10:23.520Z,98991.38
2023-04-07T11:13:06.547Z,98989.58
2023-04-07T11:15:39.382Z,98983.75
2023-04-07T11:18:14.634Z,98983.05
2023-04-07T11:20:53.481Z,98984.33
2023-04-07T11:23:25.360Z,98982.34
2023-04-07T11:26:02.237Z,98975.30
2023-04-07T11:28:31.775Z,98977.35
2023-04-07T11:31:00.609Z,98979.20
2023-04-07T11:33:31.791Z,98980.09
2023-04-07T11:36:02.365Z,98984.83
2023-04-07T11:38:39.139Z,98983.73
2023-04-07T11:41:14.535Z,98975.58
2023-04-07T11:43:43.032Z,98968.38
2023-04-07T11:46:17.473Z,98970.43
2023-04-07T11:48:47.569Z,98968.45
2023-04-07T11:51:21.426Z,98968.88
2023-04-07T11:53:57.081Z,98971.02
2023-04-07T11:56:28.314Z,98962.96
2023-04-07T11:58:57.392Z,98961.98
2023-04-07T12:01:40.901Z,98963.05
2023-04-07T12:04:14.395Z,98961.60
2023-04-07T12:06:44.290Z,98959.05
2023-04-07T12:09:27.513Z,98960.88
2023-04-07T12:11:58.122Z,98968.08
2023-04-07T12:14:28.038Z,98969.98
2023-04-07T12:16:58.286Z,98970.17
2023-04-07T12:19:28.491Z,98972.31
2023-04-07T12:21:57.397Z,98972.79
2023-04-07T12:24:25.678Z,98976.54
2023-04-07T12:26:53.998Z,98974.99
2023-04-07T12:29:22.248Z,98974.34
2023-04-07T12:31:51.357Z,98974.04
2023-04-07T12:34:20.205Z,98977.40
2023-04-07T12:36:48.781Z,98977.19
2023-04-07T12:39:17.057Z,98977.23
2023-04-07T12:41:47.728Z,98978.23
2023-04-07T12:44:16.841Z,98981.04
2023-04-07T12:46:45.485Z,98982.98
2023-04-07T12:49:13.838Z,98984.50
2023-04-07T12:51:42.295Z,98990.45
2023-04-07T12:54:10.916Z,98993.09
2023-04-07T12:56:40.985Z,98997.18
2023-04-07T12:59:09.803Z,98995.67
2023-04-07T13:01:38.400Z,99000.75
2023-04-07T13:04:06.926Z,99001.77
2023-04-07T13:06:35.347Z,99002.00
2023-04-07T13:09:03.861Z,99000.06
2023-04-07T13:11:32.038Z,99000.80
2023-04-07T13:14:01.554Z,99003.51
2023-04-07T13:16:30.640Z,99005.63
2023-04-07T13:18:58.936Z,99004.92
2023-04-07T13:21:45.211Z,99007.75
2023-04-07T13:24:15.117Z,99009.33
2023-04-07T13:26:43.478Z,99012.27
2023-04-07T13:29:11.684Z,99012.59
2023-04-07T13:31:39.995Z,99014.43
2023-04-07T13:34:08.635Z,99016.13
2023-04-07T13:36:36.927Z,99018.76
2023-04-07T13:39:05.505Z,99016.40
2023-04-07T13:41:34.295Z,99017.96
2023-04-07T13:44:02.649Z,99018.27
2023-04-07T13:46:31.420Z,99019.93
2023-04-07T13:49:00.055Z,99023.15
2023-04-07T13:51:29.540Z,99028.61
2023-04-07T13:53:57.859Z,99029.41
2023-04-07T13:56:26.215Z,99030.50
2023-04-07T13:58:54.883Z,99028.54
2023-04-07T14:01:24.196Z,99027.32
2023-04-07T14:03:53.037Z,99031.44
2023-04-07T14:06:24.376Z,99034.54
2023-04-07T14:08:53.210Z,99033.47
2023-04-07T14:11:22.820Z,99029.15
2023-04-07T14:13:53.158Z,99025.02
2023-04-07T14:16:21.693Z,99019.45
2023-04-07T14:18:51.613Z,99018.98
2023-04-07T14:21:20.050Z,99025.21
2023-04-07T14:23:48.996Z,99023.58
2023-04-07T14:26:17.255Z,99021.73
2023-04-07T14:28:45.945Z,99019.63
2023-04-07T14:31:17.901Z,99023.59
2023-04-07T14:33:46.941Z,99025.16
2023-04-07T14:36:17.012Z,99023.29
2023-04-07T14:38:45.422Z,99025.22
2023-04-07T14:41:13.719Z,99023.09
2023-04-07T14:43:42.654Z,99024.90
2023-04-07T14:46:12.521Z,99022.11
2023-04-07T14:48:41.148Z,99020.34
2023-04-07T14:51:13.132Z,99017.91
2023-04-07T14:53:42.214Z,99021.11
2023-04-07T14:56:10.730Z,99025.43
2023-04-07T14:58:40.915Z,99032.73
2023-04-07T15:01:09.341Z,99031.98
2023-04-07T15:03:37.852Z,99032.74
2023-04-07T15:06:08.738Z,99036.52
2023-04-07T15:08:37.877Z,99037.04
2023-04-07T15:11:10.341Z,99039.02
2023-04-07T15:13:38.533Z,99042.94
2023-04-07T15:16:11.632Z,99045.98
2023-04-07T15:18:42.878Z,99043.42
2023-04-07T15:21:12.517Z,99046.84
2023-04-07T15:23:42.065Z,99048.55
2023-04-07T15:26:11.081Z,99049.15
2023-04-07T15:28:39.461Z,99051.65
2023-04-07T15:31:09.149Z,99053.14
2023-04-07T15:33:39.518Z,99055.27
2023-04-07T15:36:09.245Z,99058.52
2023-04-07T15:38:39.478Z,99059.15
2023-04-07T15:41:07.935Z,99059.42
2023-04-07T15:43:36.994Z,99058.23
2023-04-07T15:46:05.602Z,99061.86
2023-04-07T15:48:33.931Z,99063.95
2023-04-07T15:51:02.315Z,99063.97
2023-04-07T15:53:31.016Z,99063.55
2023-04-07T15:55:59.374Z,99069.65
2023-04-07T15:58:27.690Z,99074.33
2023-04-07T16:00:56.214Z,99073.79
2023-04-07T16:03:24.942Z,99073.84
2023-04-07T16:05:54.134Z,99074.41
2023-04-07T16:08:22.468Z,99073.65
2023-04-07T16:10:55.416Z,99076.45
2023-04-07T16:13:23.778Z,99073.73
2023-04-07T16:15:56.984Z,99078.22
2023-04-07T16:18:25.658Z,99083.00
2023-04-07T16:20:53.910Z,99086.63
2023-04-07T16:23:22.222Z,99090.48
2023-04-07T16:25:50.480Z,99093.17
2023-04-07T16:28:18.789Z,99093.59
2023-04-07T16:30:47.054Z,99099.08
2023-04-07T16:33:15.549Z,99098.79
2023-04-07T16:35:43.905Z,99098.29
2023-04-07T16:38:12.449Z,99100.13
2023-04-07T16:40:44.097Z,99102.92
2023-04-07T16:43:16.298Z,99101.73
2023-04-07T16:45:50.290Z,99106.05
2023-04-07T16:48:19.354Z,99109.02
2023-04-07T16:50:47.771Z,99112.94
2023-04-07T16:53:16.013Z,99119.04
2023-04-07T16:55:44.284Z,99119.21
2023-04-07T16:58:12.649Z,99124.90
2023-04-07T17:00:40.950Z,99130.77
2023-04-07T17:03:09.345Z,99130.75
2023-04-07T17:05:37.827Z,99131.98
2023-04-07T17:08:06.039Z,99135.73
2023-04-07T17:10:34.286Z,99137.64
2023-04-07T17:13:02.552Z,99139.49
2023-04-07T17:15:30.816Z,99145.39
2023-04-07T17:17:59.768Z,99150.49
2023-04-07T17:20:28.178Z,99152.44
2023-04-07T17:22:56.524Z,99159.79
2023-04-07T17:25:24.954Z,99164.04
2023-04-07T17:27:55.249Z,99162.34
2023-04-07T17:30:23.533Z,99166.58
2023-04-07T17:32:53.400Z,99168.11
2023-04-07T17:35:22.739Z,99169.27
2023-04-07T17:37:51.965Z,99170.20
2023-04-07T17:40:20.480Z,99173.94
2023-04-07T17:42:49.791Z,99173.80
2023-04-07T17:45:18.211Z,99174.83
2023-04-07T17:47:46.580Z,99180.02
2023-04-07T17:50:16.435Z,99184.52
2023-04-07T17:52:45.324Z,99181.52
2023-04-07T17:55:13.829Z,99184.71
2023-04-07T17:57:42.334Z,99189.55
2023-04-07T18:00:11.208Z,99195.62
2023-04-07T18:02:43.499Z,99199.68
2023-04-07T18:05:12.528Z,99202.88
2023-04-07T18:07:41.303Z,99203.09
2023-04-07T18:10:10.122Z,99205.42
2023-04-07T18:12:39.080Z,99208.16
2023-04-07T18:15:08.149Z,99207.85
2023-04-07T18:17:37.013Z,99210.54
2023-04-07T18:20:06.060Z,99215.49
2023-04-07T18:22:34.434Z,99220.48
2023-04-07T18:25:03.006Z,99223.01
2023-04-07T18:27:31.376Z,99231.77
2023-04-07T18:29:59.661Z,99236.98
2023-04-07T18:32:28.012Z,99241.03
2023-04-07T18:34:56.465Z,99245.85
2023-04-07T18:37:24.974Z,99253.61
2023-04-07T18:39:53.909Z,99255.70
2023-04-07T18:42:22.140Z,99259.08
2023-04-07T18:44:50.692Z,99256.30
2023-04-07T18:47:19.014Z,99257.89
2023-04-07T18:49:47.266Z,99261.36
2023-04-07T18:52:15.545Z,99265.75
2023-04-07T18:54:44.602Z,99270.44
2023-04-07T18:57:12.757Z,99271.38
2023-04-07T18:59:40.997Z,99274.31
2023-04-07T19:02:09.463Z,99274.36
2023-04-07T19:04:37.784Z,99277.77
2023-04-07T19:07:06.188Z,99278.45
2023-04-07T19:09:34.544Z,99280.70
2023-04-07T19:12:02.747Z,99286.29
2023-04-07T19:14:30.994Z,99287.10
2023-04-07T19:16:59.426Z,99288.38
2023-04-07T19:19:28.505Z,99288.98
2023-04-07T19:21:56.710Z,99288.10
2023-04-07T19:24:26.062Z,99289.42
2023-04-07T19:26:54.279Z,99293.17
2023-04-07T19:29:22.675Z,99293.08
2023-04-07T19:31:53.027Z,99289.23
2023-04-07T19:34:21.427Z,99291.16
2023-04-07T19:36:49.694Z,99292.29
2023-04-07T19:39:18.024Z,99293.65
2023-04-07T19:41:46.381Z,99298.35
2023-04-07T19:44:14.971Z,99296.80
2023-04-07T19:46:43.411Z,99296.98
2023-04-07T19:49:11.737Z,99300.33
2023-04-07T19:51:41.589Z,99306.19
2023-04-07T19:54:09.859Z,99308.23
2023-04-07T19:56:38.564Z,99305.96
2023-04-07T19:59:07.518Z,99308.80
2023-04-07T20:01:36.013Z,99310.70
2023-04-07T20:04:04.545Z,99309.09
2023-04-07T20:06:33.901Z,99306.71
2023-04-07T20:09:02.527Z,99308.19
2023-04-07T20:11:30.808Z,99312.25
2023-04-07T20:13:59.166Z,99314.73
2023-04-07T20:16:27.514Z,99317.55
2023-04-07T20:18:55.854Z,99317.43
2023-04-07T20:21:24.280Z,99318.41
2023-04-07T20:23:52.645Z,99317.51
2023-04-07T20:26:22.202Z,99320.20
2023-04-07T20:28:51.039Z,99323.94
2023-04-07T20:31:19.737Z,99321.11
2023-04-07T20:33:48.451Z,99320.45
2023-04-07T20:36:17.964Z,99319.73
2023-04-07T20:38:48.037Z,99320.14
2023-04-07T20:41:16.751Z,99318.48
2023-04-07T20:43:45.164Z,99323.19
2023-04-07T20:46:13.561Z,99321.16
2023-04-07T20:48:42.135Z,99323.58
2023-04-07T20:51:11.094Z,99322.73
2023-04-07T20:53:40.852Z,99321.52
2023-04-07T20:56:09.312Z,99318.49
2023-04-07T20:58:37.612Z,99318.65
2023-04-07T21:01:06.079Z,99316.56
2023-04-07T21:03:35.971Z,99317.04
2023-04-07T21:06:04.812Z,99320.46
2023-04-07T21:08:33.201Z,99320.78
2023-04-07T21:11:01.365Z,99321.02
2023-04-07T21:13:29.711Z,99321.05
2023-04-07T21:15:59.391Z,99319.77
2023-04-07T21:18:27.778Z,99322.02
2023-04-07T21:21:00.051Z,99322.08
2023-04-07T21:23:28.441Z,99324.20
2023-04-07T21:26:00.766Z,99322.45
2023-04-07T21:28:29.280Z,99330.08
2023-04-07T21:30:58.270Z,99328.69
2023-04-07T21:33:26.923Z,99323.68
2023-04-07T21:35:55.485Z,99323.58
2023-04-07T21:38:23.868Z,99323.94
2023-04-07T21:40:52.163Z,99323.95
2023-04-07T21:43:20.526Z,99326.44
2023-04-07T21:45:48.941Z,99332.62
2023-04-07T21:48:20.880Z,99331.95
2023-04-07T21:50:53.010Z,99328.61
2023-04-07T21:53:21.607Z,99333.33
2023-04-07T21:55:49.976Z,99332.77
2023-04-07T21:58:18.310Z,99334.06
2023-04-07T22:00:50.188Z,99335.64
2023-04-07T22:03:19.454Z,99335.52
2023-04-07T22:05:47.941Z,99335.34
2023-04-07T22:08:16.803Z,99335.85
2023-04-07T22:10:45.342Z,99334.34
2023-04-07T22:13:13.575Z,99334.48
2023-04-07T22:15:41.767Z,99339.04
2023-04-07T22:18:11.783Z,99339.63
2023-04-07T22:20:41.900Z,99338.35
2023-04-07T22:23:10.392Z,99336.95
2023-04-07T22:25:38.810Z,99334.25
2023-04-07T22:28:07.118Z,99338.21
2023-04-07T22:30:35.561Z,99335.70
2023-04-07T22:33:04.909Z,99337.17
2023-04-07T22:35:33.642Z,99335.00
2023-04-07T22:38:02.014Z,99339.48
2023-04-07T22:40:30.378Z,99344.42
2023-04-07T22:42:58.565Z,99344.63
2023-04-07T22:45:26.967Z,99347.35
2023-04-07T22:47:55.246Z,99344.53
2023-04-07T22:50:23.473Z,99345.77
2023-04-07T22:52:51.754Z,99347.13
2023-04-07T22:55:20.651Z,99347.67
2023-04-07T22:57:48.933Z,99347.15
2023-04-07T23:00:17.252Z,99350.22
2023-04-07T23:02:45.808Z,99351.35
2023-04-07T23:05:14.102Z,99353.45
2023-04-07T23:07:42.443Z,99353.06
2023-04-07T23:10:10.972Z,99351.72
2023-04-07T23:12:39.300Z,99354.08
2023-04-07T23:15:07.945Z,99354.04
2023-04-07T23:17:36.871Z,99352.04
2023-04-07T23:20:06.055Z,99354.41
2023-04-07T23:22:34.357Z,99355.80
2023-04-07T23:25:03.248Z,99354.29
2023-04-07T23:27:32.861Z,99352.58
2023-04-07T23:30:01.685Z,99353.16
2023-04-07T23:32:30.207Z,99352.11
2023-04-07T23:34:58.502Z,99353.81
2023-04-07T23:37:26.863Z,99353.48
2023-04-07T23:39:55.091Z,99356.16
2023-04-07T23:42:24.004Z,99351.90
2023-04-07T23:44:52.470Z,99354.06
2023-04-07T23:47:21.544Z,99359.06
2023-04-07T23:49:49.860Z,99356.09
2023-04-07T23:52:21.400Z,99359.93
2023-04-07T23:54:51.111Z,99357.80
2023-04-07T23:57:19.443Z,99358.14
2023-04-07T23:59:47.734Z,99360.43
